sensor_id;sensor_type;location;lat;lon;timestamp;temperature;humidity
3156;DHT22;1588;50.892;7.082;2023-01-23T00:02:07;2.30;99.90
3156;DHT22;1588;50.892;7.082;2023-01-23T00:07:17;2.30;99.90
3156;DHT22;1588;50.892;7.082;2023-01-23T00:12:22;2.20;99.90
3156;DHT22;1588;50.892;7.082;2023-01-23T00:17:29;2.20;99.90
3156;DHT22;1588;50.892;7.082;2023-01-23T00:22:33;2.20;99.90
3156;DHT22;1588;50.892;7.082;2023-01-23T00:27:38;2.20;99.90
3156;DHT22;1588;50.892;7.082;2023-01-23T00:32:41;2.20;99.90
3156;DHT22;1588;50.892;7.082;2023-01-23T00:37:44;2.20;99.90
3156;DHT22;1588;50.892;7.082;2023-01-23T00:42:47;2.20;99.90
3156;DHT22;1588;50.892;7.082;2023-01-23T00:47:52;2.20;99.90
3156;DHT22;1588;50.892;7.082;2023-01-23T00:52:58;2.20;99.90
3156;DHT22;1588;50.892;7.082;2023-01-23T00:58:03;2.20;99.90
3156;DHT22;1588;50.892;7.082;2023-01-23T01:03:29;2.20;99.90
3156;DHT22;1588;50.892;7.082;2023-01-23T01:08:38;2.20;99.90
3156;DHT22;1588;50.892;7.082;2023-01-23T01:13:46;2.20;99.90
3156;DHT22;1588;50.892;7.082;2023-01-23T01:19:18;2.20;99.90
3156;DHT22;1588;50.892;7.082;2023-01-23T01:29:51;2.30;99.90
3156;DHT22;1588;50.892;7.082;2023-01-23T01:34:59;2.30;99.90
3156;DHT22;1588;50.892;7.082;2023-01-23T01:40:05;2.20;99.90
3156;DHT22;1588;50.892;7.082;2023-01-23T01:50:54;2.20;99.90
3156;DHT22;1588;50.892;7.082;2023-01-23T01:56:09;2.20;99.90
3156;DHT22;1588;50.892;7.082;2023-01-23T02:01:22;2.20;99.90
3156;DHT22;1588;50.892;7.082;2023-01-23T02:06:35;2.20;99.90
3156;DHT22;1588;50.892;7.082;2023-01-23T02:11:41;2.30;99.90
3156;DHT22;1588;50.892;7.082;2023-01-23T02:16:47;2.20;99.90
3156;DHT22;1588;50.892;7.082;2023-01-23T02:21:59;2.20;99.90
3156;DHT22;1588;50.892;7.082;2023-01-23T02:27:10;2.20;99.90
3156;DHT22;1588;50.892;7.082;2023-01-23T02:32:17;2.20;99.90
3156;DHT22;1588;50.892;7.082;2023-01-23T02:37:25;2.10;99.90
3156;DHT22;1588;50.892;7.082;2023-01-23T02:42:32;2.20;99.90
3156;DHT22;1588;50.892;7.082;2023-01-23T02:47:34;2.20;99.90
3156;DHT22;1588;50.892;7.082;2023-01-23T02:52:39;2.20;99.90
3156;DHT22;1588;50.892;7.082;2023-01-23T02:57:43;2.20;99.90
3156;DHT22;1588;50.892;7.082;2023-01-23T03:02:47;2.10;99.90
3156;DHT22;1588;50.892;7.082;2023-01-23T03:07:49;2.10;99.90
3156;DHT22;1588;50.892;7.082;2023-01-23T03:12:53;2.10;99.90
3156;DHT22;1588;50.892;7.082;2023-01-23T03:17:58;2.00;99.90
3156;DHT22;1588;50.892;7.082;2023-01-23T03:23:00;2.00;99.90
3156;DHT22;1588;50.892;7.082;2023-01-23T03:28:06;1.90;99.90
3156;DHT22;1588;50.892;7.082;2023-01-23T03:33:29;1.90;99.90
3156;DHT22;1588;50.892;7.082;2023-01-23T03:38:39;1.80;99.90
3156;DHT22;1588;50.892;7.082;2023-01-23T03:44:04;1.70;99.90
3156;DHT22;1588;50.892;7.082;2023-01-23T03:49:07;1.70;99.90
3156;DHT22;1588;50.892;7.082;2023-01-23T03:54:09;1.70;99.90
3156;DHT22;1588;50.892;7.082;2023-01-23T03:59:20;1.80;99.90
3156;DHT22;1588;50.892;7.082;2023-01-23T04:04:29;1.70;99.90
3156;DHT22;1588;50.892;7.082;2023-01-23T04:09:33;1.70;99.90
3156;DHT22;1588;50.892;7.082;2023-01-23T04:14:40;1.70;99.90
3156;DHT22;1588;50.892;7.082;2023-01-23T04:19:43;1.60;99.90
3156;DHT22;1588;50.892;7.082;2023-01-23T04:24:46;1.60;99.90
3156;DHT22;1588;50.892;7.082;2023-01-23T04:29:49;1.60;99.90
3156;DHT22;1588;50.892;7.082;2023-01-23T04:34:52;1.50;99.90
3156;DHT22;1588;50.892;7.082;2023-01-23T04:39:55;1.40;99.90
3156;DHT22;1588;50.892;7.082;2023-01-23T04:44:59;1.40;99.90
3156;DHT22;1588;50.892;7.082;2023-01-23T04:50:03;1.20;99.90
3156;DHT22;1588;50.892;7.082;2023-01-23T04:55:06;1.10;99.90
3156;DHT22;1588;50.892;7.082;2023-01-23T05:00:14;1.00;99.90
3156;DHT22;1588;50.892;7.082;2023-01-23T05:05:28;0.90;99.90
3156;DHT22;1588;50.892;7.082;2023-01-23T05:10:30;0.80;99.90
3156;DHT22;1588;50.892;7.082;2023-01-23T05:15:34;0.70;99.90
3156;DHT22;1588;50.892;7.082;2023-01-23T05:20:37;0.80;99.90
3156;DHT22;1588;50.892;7.082;2023-01-23T05:25:39;0.80;99.90
3156;DHT22;1588;50.892;7.082;2023-01-23T05:30:43;0.80;99.90
3156;DHT22;1588;50.892;7.082;2023-01-23T05:35:46;0.70;99.90
3156;DHT22;1588;50.892;7.082;2023-01-23T05:40:48;0.60;99.90
3156;DHT22;1588;50.892;7.082;2023-01-23T05:45:52;0.40;99.90
3156;DHT22;1588;50.892;7.082;2023-01-23T05:50:54;0.30;99.90
3156;DHT22;1588;50.892;7.082;2023-01-23T05:55:57;0.20;99.90
3156;DHT22;1588;50.892;7.082;2023-01-23T06:01:04;0.20;99.90
3156;DHT22;1588;50.892;7.082;2023-01-23T06:06:07;0.20;99.90
3156;DHT22;1588;50.892;7.082;2023-01-23T06:11:13;0.30;99.90
3156;DHT22;1588;50.892;7.082;2023-01-23T06:16:17;0.60;99.90
3156;DHT22;1588;50.892;7.082;2023-01-23T06:21:20;0.70;99.90
3156;DHT22;1588;50.892;7.082;2023-01-23T06:26:27;0.70;99.90
3156;DHT22;1588;50.892;7.082;2023-01-23T06:31:31;0.80;99.90
3156;DHT22;1588;50.892;7.082;2023-01-23T06:36:33;0.80;99.90
3156;DHT22;1588;50.892;7.082;2023-01-23T06:41:46;0.90;99.90
3156;DHT22;1588;50.892;7.082;2023-01-23T06:46:51;0.90;99.90
3156;DHT22;1588;50.892;7.082;2023-01-23T06:51:54;0.90;99.90
3156;DHT22;1588;50.892;7.082;2023-01-23T06:56:56;0.90;99.90
3156;DHT22;1588;50.892;7.082;2023-01-23T07:02:00;1.00;99.90
3156;DHT22;1588;50.892;7.082;2023-01-23T07:07:03;1.10;99.90
3156;DHT22;1588;50.892;7.082;2023-01-23T07:12:05;1.10;99.90
3156;DHT22;1588;50.892;7.082;2023-01-23T07:17:09;1.10;99.90
3156;DHT22;1588;50.892;7.082;2023-01-23T07:22:15;1.10;99.90
3156;DHT22;1588;50.892;7.082;2023-01-23T07:27:21;1.10;99.90
3156;DHT22;1588;50.892;7.082;2023-01-23T07:32:25;1.20;99.90
3156;DHT22;1588;50.892;7.082;2023-01-23T07:37:27;1.10;99.90
3156;DHT22;1588;50.892;7.082;2023-01-23T07:42:30;1.20;99.90
3156;DHT22;1588;50.892;7.082;2023-01-23T07:47:34;1.20;99.90
3156;DHT22;1588;50.892;7.082;2023-01-23T07:52:37;1.30;99.90
3156;DHT22;1588;50.892;7.082;2023-01-23T07:57:49;1.30;99.90
3156;DHT22;1588;50.892;7.082;2023-01-23T08:02:53;1.40;99.90
3156;DHT22;1588;50.892;7.082;2023-01-23T08:07:55;1.50;99.90
3156;DHT22;1588;50.892;7.082;2023-01-23T08:12:58;1.60;99.90
3156;DHT22;1588;50.892;7.082;2023-01-23T08:18:02;1.60;99.90
3156;DHT22;1588;50.892;7.082;2023-01-23T08:23:05;1.70;99.90
3156;DHT22;1588;50.892;7.082;2023-01-23T08:28:07;1.80;99.90
3156;DHT22;1588;50.892;7.082;2023-01-23T08:33:11;1.90;99.90
3156;DHT22;1588;50.892;7.082;2023-01-23T08:38:13;2.00;99.90
3156;DHT22;1588;50.892;7.082;2023-01-23T08:43:18;2.00;99.90
3156;DHT22;1588;50.892;7.082;2023-01-23T08:48:23;2.10;99.90
3156;DHT22;1588;50.892;7.082;2023-01-23T08:53:26;2.20;99.90
3156;DHT22;1588;50.892;7.082;2023-01-23T08:58:29;2.20;99.90
3156;DHT22;1588;50.892;7.082;2023-01-23T09:03:35;2.20;99.90
3156;DHT22;1588;50.892;7.082;2023-01-23T09:08:38;2.30;99.90
3156;DHT22;1588;50.892;7.082;2023-01-23T09:13:41;2.40;99.90
3156;DHT22;1588;50.892;7.082;2023-01-23T09:18:45;2.40;99.90
3156;DHT22;1588;50.892;7.082;2023-01-23T09:23:47;2.50;99.90
3156;DHT22;1588;50.892;7.082;2023-01-23T09:28:49;2.50;99.90
3156;DHT22;1588;50.892;7.082;2023-01-23T09:33:53;2.50;99.90
3156;DHT22;1588;50.892;7.082;2023-01-23T09:38:56;2.60;99.90
3156;DHT22;1588;50.892;7.082;2023-01-23T09:44:01;2.70;99.90
3156;DHT22;1588;50.892;7.082;2023-01-23T09:49:11;2.90;99.90
3156;DHT22;1588;50.892;7.082;2023-01-23T09:54:21;2.80;99.90
3156;DHT22;1588;50.892;7.082;2023-01-23T09:59:34;3.00;99.90
3156;DHT22;1588;50.892;7.082;2023-01-23T10:04:41;3.00;99.90
3156;DHT22;1588;50.892;7.082;2023-01-23T10:15:19;3.10;99.90
3156;DHT22;1588;50.892;7.082;2023-01-23T10:20:43;3.30;99.90
3156;DHT22;1588;50.892;7.082;2023-01-23T10:25:50;3.30;99.90
3156;DHT22;1588;50.892;7.082;2023-01-23T10:30:56;3.50;99.90
3156;DHT22;1588;50.892;7.082;2023-01-23T10:36:08;3.60;99.90
3156;DHT22;1588;50.892;7.082;2023-01-23T10:41:15;3.60;99.90
3156;DHT22;1588;50.892;7.082;2023-01-23T10:46:22;3.70;99.90
3156;DHT22;1588;50.892;7.082;2023-01-23T10:51:43;3.80;99.90
3156;DHT22;1588;50.892;7.082;2023-01-23T10:56:52;3.90;99.90
3156;DHT22;1588;50.892;7.082;2023-01-23T11:02:02;4.00;99.90
3156;DHT22;1588;50.892;7.082;2023-01-23T11:07:11;4.10;99.90
3156;DHT22;1588;50.892;7.082;2023-01-23T11:12:16;4.20;99.90
3156;DHT22;1588;50.892;7.082;2023-01-23T11:17:22;4.10;99.90
3156;DHT22;1588;50.892;7.082;2023-01-23T11:22:31;4.20;99.90
3156;DHT22;1588;50.892;7.082;2023-01-23T11:27:40;4.20;99.90
3156;DHT22;1588;50.892;7.082;2023-01-23T11:32:58;4.20;99.90
3156;DHT22;1588;50.892;7.082;2023-01-23T11:38:03;4.30;99.90
3156;DHT22;1588;50.892;7.082;2023-01-23T11:43:12;4.30;99.90
3156;DHT22;1588;50.892;7.082;2023-01-23T11:48:27;4.40;99.90
3156;DHT22;1588;50.892;7.082;2023-01-23T11:53:38;4.30;99.90
3156;DHT22;1588;50.892;7.082;2023-01-23T11:59:12;4.40;99.90
3156;DHT22;1588;50.892;7.082;2023-01-23T12:04:31;4.60;99.90
3156;DHT22;1588;50.892;7.082;2023-01-23T12:09:47;4.60;99.90
3156;DHT22;1588;50.892;7.082;2023-01-23T12:14:58;4.60;99.90
3156;DHT22;1588;50.892;7.082;2023-01-23T12:20:27;4.60;99.90
3156;DHT22;1588;50.892;7.082;2023-01-23T12:25:34;4.50;99.90
3156;DHT22;1588;50.892;7.082;2023-01-23T12:31:06;4.40;99.90
3156;DHT22;1588;50.892;7.082;2023-01-23T12:36:25;4.50;99.90
3156;DHT22;1588;50.892;7.082;2023-01-23T12:41:38;4.50;99.90
3156;DHT22;1588;50.892;7.082;2023-01-23T12:46:49;4.50;99.90
3156;DHT22;1588;50.892;7.082;2023-01-23T12:51:57;4.50;99.90
3156;DHT22;1588;50.892;7.082;2023-01-23T12:57:07;4.40;99.90
3156;DHT22;1588;50.892;7.082;2023-01-23T13:02:15;4.40;99.90
3156;DHT22;1588;50.892;7.082;2023-01-23T13:07:26;4.40;99.90
3156;DHT22;1588;50.892;7.082;2023-01-23T13:12:45;4.40;99.90
3156;DHT22;1588;50.892;7.082;2023-01-23T13:17:49;4.50;99.90
3156;DHT22;1588;50.892;7.082;2023-01-23T13:22:51;4.60;99.90
3156;DHT22;1588;50.892;7.082;2023-01-23T13:27:56;4.60;99.90
3156;DHT22;1588;50.892;7.082;2023-01-23T13:33:14;4.60;99.90
3156;DHT22;1588;50.892;7.082;2023-01-23T13:38:33;4.60;99.90
3156;DHT22;1588;50.892;7.082;2023-01-23T13:43:42;4.50;99.90
3156;DHT22;1588;50.892;7.082;2023-01-23T13:48:58;4.50;99.90
3156;DHT22;1588;50.892;7.082;2023-01-23T13:54:28;4.60;99.90
3156;DHT22;1588;50.892;7.082;2023-01-23T13:59:52;4.60;99.90
3156;DHT22;1588;50.892;7.082;2023-01-23T14:05:03;4.60;99.90
3156;DHT22;1588;50.892;7.082;2023-01-23T14:10:27;4.50;99.90
3156;DHT22;1588;50.892;7.082;2023-01-23T14:15:32;4.40;99.90
3156;DHT22;1588;50.892;7.082;2023-01-23T14:20:52;4.40;99.90
3156;DHT22;1588;50.892;7.082;2023-01-23T14:25:56;4.40;99.90
3156;DHT22;1588;50.892;7.082;2023-01-23T14:31:02;4.50;99.90
3156;DHT22;1588;50.892;7.082;2023-01-23T14:36:24;4.40;99.90
3156;DHT22;1588;50.892;7.082;2023-01-23T14:41:47;4.40;99.90
3156;DHT22;1588;50.892;7.082;2023-01-23T14:57:44;4.30;99.90
3156;DHT22;1588;50.892;7.082;2023-01-23T15:03:10;4.30;99.90
3156;DHT22;1588;50.892;7.082;2023-01-23T15:08:19;4.30;99.90
3156;DHT22;1588;50.892;7.082;2023-01-23T15:13:27;4.30;99.90
3156;DHT22;1588;50.892;7.082;2023-01-23T15:18:33;4.30;99.90
3156;DHT22;1588;50.892;7.082;2023-01-23T15:23:38;4.20;99.90
3156;DHT22;1588;50.892;7.082;2023-01-23T15:28:48;4.20;99.90
3156;DHT22;1588;50.892;7.082;2023-01-23T15:33:55;4.20;99.90
3156;DHT22;1588;50.892;7.082;2023-01-23T15:39:01;4.10;99.90
3156;DHT22;1588;50.892;7.082;2023-01-23T15:44:11;4.10;99.90
3156;DHT22;1588;50.892;7.082;2023-01-23T15:49:14;4.10;99.90
3156;DHT22;1588;50.892;7.082;2023-01-23T15:54:23;4.00;99.90
3156;DHT22;1588;50.892;7.082;2023-01-23T15:59:27;4.00;99.90
3156;DHT22;1588;50.892;7.082;2023-01-23T16:04:30;4.00;99.90
3156;DHT22;1588;50.892;7.082;2023-01-23T16:09:37;3.90;99.90
3156;DHT22;1588;50.892;7.082;2023-01-23T16:14:42;4.00;99.90
3156;DHT22;1588;50.892;7.082;2023-01-23T16:19:50;3.90;99.90
3156;DHT22;1588;50.892;7.082;2023-01-23T16:24:55;3.80;99.90
3156;DHT22;1588;50.892;7.082;2023-01-23T16:29:59;3.80;99.90
3156;DHT22;1588;50.892;7.082;2023-01-23T16:35:02;3.70;99.90
3156;DHT22;1588;50.892;7.082;2023-01-23T16:40:14;3.70;99.90
3156;DHT22;1588;50.892;7.082;2023-01-23T16:45:20;3.70;99.90
3156;DHT22;1588;50.892;7.082;2023-01-23T16:50:32;3.60;99.90
3156;DHT22;1588;50.892;7.082;2023-01-23T16:55:46;3.60;99.90
3156;DHT22;1588;50.892;7.082;2023-01-23T17:01:00;3.60;99.90
3156;DHT22;1588;50.892;7.082;2023-01-23T17:06:04;3.50;99.90
3156;DHT22;1588;50.892;7.082;2023-01-23T17:11:07;3.50;99.90
3156;DHT22;1588;50.892;7.082;2023-01-23T17:16:12;3.50;99.90
3156;DHT22;1588;50.892;7.082;2023-01-23T17:21:17;3.50;99.90
3156;DHT22;1588;50.892;7.082;2023-01-23T17:26:20;3.50;99.90
3156;DHT22;1588;50.892;7.082;2023-01-23T17:31:26;3.50;99.90
3156;DHT22;1588;50.892;7.082;2023-01-23T17:36:29;3.50;99.90
3156;DHT22;1588;50.892;7.082;2023-01-23T17:41:31;3.40;99.90
3156;DHT22;1588;50.892;7.082;2023-01-23T17:46:36;3.40;99.90
3156;DHT22;1588;50.892;7.082;2023-01-23T17:51:41;3.50;99.90
3156;DHT22;1588;50.892;7.082;2023-01-23T17:56:44;3.40;99.90
3156;DHT22;1588;50.892;7.082;2023-01-23T18:01:58;3.40;99.90
3156;DHT22;1588;50.892;7.082;2023-01-23T18:07:06;3.40;99.90
3156;DHT22;1588;50.892;7.082;2023-01-23T18:12:28;3.40;99.90
3156;DHT22;1588;50.892;7.082;2023-01-23T18:17:42;3.40;99.90
3156;DHT22;1588;50.892;7.082;2023-01-23T18:23:10;3.50;99.90
3156;DHT22;1588;50.892;7.082;2023-01-23T18:29:40;3.40;99.90
3156;DHT22;1588;50.892;7.082;2023-01-23T18:35:41;3.40;99.90
3156;DHT22;1588;50.892;7.082;2023-01-23T18:41:08;3.40;99.90
3156;DHT22;1588;50.892;7.082;2023-01-23T19:11:24;3.30;99.90
3156;DHT22;1588;50.892;7.082;2023-01-23T19:16:51;3.20;99.90
3156;DHT22;1588;50.892;7.082;2023-01-23T19:22:18;3.10;99.90
3156;DHT22;1588;50.892;7.082;2023-01-23T19:27:37;3.10;99.90
3156;DHT22;1588;50.892;7.082;2023-01-23T19:32:50;3.10;99.90
3156;DHT22;1588;50.892;7.082;2023-01-23T19:37:55;3.20;99.90
3156;DHT22;1588;50.892;7.082;2023-01-23T19:43:02;3.20;99.90
3156;DHT22;1588;50.892;7.082;2023-01-23T19:48:08;3.20;99.90
3156;DHT22;1588;50.892;7.082;2023-01-23T19:53:15;3.20;99.90
3156;DHT22;1588;50.892;7.082;2023-01-23T19:58:23;3.30;99.90
3156;DHT22;1588;50.892;7.082;2023-01-23T20:03:26;3.20;99.90
3156;DHT22;1588;50.892;7.082;2023-01-23T20:08:29;3.30;99.90
3156;DHT22;1588;50.892;7.082;2023-01-23T20:13:34;3.30;99.90
3156;DHT22;1588;50.892;7.082;2023-01-23T20:18:36;3.30;99.90
3156;DHT22;1588;50.892;7.082;2023-01-23T20:23:39;3.30;99.90
3156;DHT22;1588;50.892;7.082;2023-01-23T20:28:47;3.30;99.90
3156;DHT22;1588;50.892;7.082;2023-01-23T20:33:49;3.30;99.90
3156;DHT22;1588;50.892;7.082;2023-01-23T20:38:54;3.30;99.90
3156;DHT22;1588;50.892;7.082;2023-01-23T20:43:58;3.30;99.90
3156;DHT22;1588;50.892;7.082;2023-01-23T20:49:03;3.30;99.90
3156;DHT22;1588;50.892;7.082;2023-01-23T20:54:06;3.30;99.90
3156;DHT22;1588;50.892;7.082;2023-01-23T20:59:13;3.30;99.90
3156;DHT22;1588;50.892;7.082;2023-01-23T21:04:30;3.30;99.90
3156;DHT22;1588;50.892;7.082;2023-01-23T21:09:36;3.30;99.90
3156;DHT22;1588;50.892;7.082;2023-01-23T21:14:39;3.30;99.90
3156;DHT22;1588;50.892;7.082;2023-01-23T21:19:42;3.30;99.90
3156;DHT22;1588;50.892;7.082;2023-01-23T21:24:44;3.30;99.90
3156;DHT22;1588;50.892;7.082;2023-01-23T21:29:48;3.30;99.90
3156;DHT22;1588;50.892;7.082;2023-01-23T21:34:50;3.30;99.90
3156;DHT22;1588;50.892;7.082;2023-01-23T21:39:52;3.30;99.90
3156;DHT22;1588;50.892;7.082;2023-01-23T21:44:57;3.20;99.90
3156;DHT22;1588;50.892;7.082;2023-01-23T21:49:59;3.20;99.90
3156;DHT22;1588;50.892;7.082;2023-01-23T21:55:02;3.30;99.90
3156;DHT22;1588;50.892;7.082;2023-01-23T22:00:08;3.20;99.90
3156;DHT22;1588;50.892;7.082;2023-01-23T22:05:28;3.20;99.90
3156;DHT22;1588;50.892;7.082;2023-01-23T22:10:33;3.20;99.90
3156;DHT22;1588;50.892;7.082;2023-01-23T22:15:37;3.20;99.90
3156;DHT22;1588;50.892;7.082;2023-01-23T22:20:40;3.20;99.90
3156;DHT22;1588;50.892;7.082;2023-01-23T22:25:55;3.20;99.90
3156;DHT22;1588;50.892;7.082;2023-01-23T22:31:08;3.20;99.90
3156;DHT22;1588;50.892;7.082;2023-01-23T22:36:12;3.20;99.90
3156;DHT22;1588;50.892;7.082;2023-01-23T22:41:18;3.20;99.90
3156;DHT22;1588;50.892;7.082;2023-01-23T22:46:26;3.20;99.90
3156;DHT22;1588;50.892;7.082;2023-01-23T22:51:28;3.20;99.90
3156;DHT22;1588;50.892;7.082;2023-01-23T22:56:36;3.20;99.90
3156;DHT22;1588;50.892;7.082;2023-01-23T23:01:40;3.20;99.90
3156;DHT22;1588;50.892;7.082;2023-01-23T23:06:43;3.20;99.90
3156;DHT22;1588;50.892;7.082;2023-01-23T23:11:49;3.10;99.90
3156;DHT22;1588;50.892;7.082;2023-01-23T23:16:54;3.20;99.90
3156;DHT22;1588;50.892;7.082;2023-01-23T23:21:56;3.10;99.90
3156;DHT22;1588;50.892;7.082;2023-01-23T23:26:58;3.10;99.90
3156;DHT22;1588;50.892;7.082;2023-01-23T23:32:02;3.20;99.90
3156;DHT22;1588;50.892;7.082;2023-01-23T23:37:04;3.20;99.90
3156;DHT22;1588;50.892;7.082;2023-01-23T23:42:07;3.20;99.90
3156;DHT22;1588;50.892;7.082;2023-01-23T23:47:11;3.20;99.90
3156;DHT22;1588;50.892;7.082;2023-01-23T23:52:13;3.20;99.90
3156;DHT22;1588;50.892;7.082;2023-01-23T23:57:15;3.10;99.90
